sensor_id;sensor_type;location;lat;lon;timestamp;P1;durP1;ratioP1;P2;durP2;ratioP2
20621;SDS011;10470;42.670;23.354;2024-03-29T00:00:51;1.93;;;1.10;;
20621;SDS011;10470;42.670;23.354;2024-03-29T00:03:16;2.43;;;1.07;;
20621;SDS011;10470;42.670;23.354;2024-03-29T00:05:41;2.47;;;1.27;;
20621;SDS011;10470;42.670;23.354;2024-03-29T00:08:07;3.47;;;1.30;;
20621;SDS011;10470;42.670;23.354;2024-03-29T00:10:32;3.67;;;1.30;;
20621;SDS011;10470;42.670;23.354;2024-03-29T00:12:58;2.70;;;0.90;;
20621;SDS011;10470;42.670;23.354;2024-03-29T00:15:23;1.83;;;1.00;;
20621;SDS011;10470;42.670;23.354;2024-03-29T00:17:48;5.40;;;0.97;;
20621;SDS011;10470;42.670;23.354;2024-03-29T00:20:14;6.47;;;1.30;;
20621;SDS011;10470;42.670;23.354;2024-03-29T00:22:39;1.37;;;1.00;;
20621;SDS011;10470;42.670;23.354;2024-03-29T00:25:04;2.73;;;1.23;;
20621;SDS011;10470;42.670;23.354;2024-03-29T00:27:30;1.57;;;1.03;;
20621;SDS011;10470;42.670;23.354;2024-03-29T00:29:55;3.67;;;0.90;;
20621;SDS011;10470;42.670;23.354;2024-03-29T00:32:21;4.93;;;1.00;;
20621;SDS011;10470;42.670;23.354;2024-03-29T00:34:49;2.03;;;1.30;;
20621;SDS011;10470;42.670;23.354;2024-03-29T00:37:15;2.80;;;1.20;;
20621;SDS011;10470;42.670;23.354;2024-03-29T00:39:40;1.47;;;0.80;;
20621;SDS011;10470;42.670;23.354;2024-03-29T00:42:05;2.23;;;1.20;;
20621;SDS011;10470;42.670;23.354;2024-03-29T00:44:33;2.43;;;1.33;;
20621;SDS011;10470;42.670;23.354;2024-03-29T00:47:00;2.83;;;0.90;;
20621;SDS011;10470;42.670;23.354;2024-03-29T00:49:25;2.90;;;1.10;;
20621;SDS011;10470;42.670;23.354;2024-03-29T00:51:50;3.43;;;0.97;;
20621;SDS011;10470;42.670;23.354;2024-03-29T00:54:16;3.07;;;1.20;;
20621;SDS011;10470;42.670;23.354;2024-03-29T00:56:41;2.77;;;1.13;;
20621;SDS011;10470;42.670;23.354;2024-03-29T00:59:07;2.40;;;1.10;;
20621;SDS011;10470;42.670;23.354;2024-03-29T01:01:32;1.87;;;1.07;;
20621;SDS011;10470;42.670;23.354;2024-03-29T01:03:57;2.40;;;1.13;;
20621;SDS011;10470;42.670;23.354;2024-03-29T01:06:23;2.80;;;1.03;;
20621;SDS011;10470;42.670;23.354;2024-03-29T01:08:48;2.37;;;0.93;;
20621;SDS011;10470;42.670;23.354;2024-03-29T01:11:13;3.00;;;1.10;;
20621;SDS011;10470;42.670;23.354;2024-03-29T01:13:38;3.93;;;1.17;;
20621;SDS011;10470;42.670;23.354;2024-03-29T01:16:04;3.73;;;1.20;;
20621;SDS011;10470;42.670;23.354;2024-03-29T01:18:29;2.83;;;1.17;;
20621;SDS011;10470;42.670;23.354;2024-03-29T01:20:54;2.23;;;1.30;;
20621;SDS011;10470;42.670;23.354;2024-03-29T01:23:20;3.17;;;1.20;;
20621;SDS011;10470;42.670;23.354;2024-03-29T01:25:46;4.23;;;1.50;;
20621;SDS011;10470;42.670;23.354;2024-03-29T01:28:11;4.17;;;1.53;;
20621;SDS011;10470;42.670;23.354;2024-03-29T01:30:36;2.33;;;1.10;;
20621;SDS011;10470;42.670;23.354;2024-03-29T01:33:01;2.50;;;1.40;;
20621;SDS011;10470;42.670;23.354;2024-03-29T01:35:26;2.33;;;1.10;;
20621;SDS011;10470;42.670;23.354;2024-03-29T01:37:52;2.87;;;1.10;;
20621;SDS011;10470;42.670;23.354;2024-03-29T01:40:17;3.53;;;1.20;;
20621;SDS011;10470;42.670;23.354;2024-03-29T01:42:42;2.10;;;1.37;;
20621;SDS011;10470;42.670;23.354;2024-03-29T01:45:08;5.23;;;1.40;;
20621;SDS011;10470;42.670;23.354;2024-03-29T01:47:33;3.77;;;1.37;;
20621;SDS011;10470;42.670;23.354;2024-03-29T01:49:58;2.53;;;1.50;;
20621;SDS011;10470;42.670;23.354;2024-03-29T01:52:24;3.30;;;1.60;;
20621;SDS011;10470;42.670;23.354;2024-03-29T01:54:49;5.40;;;1.50;;
20621;SDS011;10470;42.670;23.354;2024-03-29T01:57:15;3.30;;;1.50;;
20621;SDS011;10470;42.670;23.354;2024-03-29T01:59:42;3.87;;;1.70;;
20621;SDS011;10470;42.670;23.354;2024-03-29T02:02:08;4.57;;;1.70;;
20621;SDS011;10470;42.670;23.354;2024-03-29T02:04:33;5.60;;;1.60;;
20621;SDS011;10470;42.670;23.354;2024-03-29T02:06:59;6.23;;;2.00;;
20621;SDS011;10470;42.670;23.354;2024-03-29T02:09:24;2.93;;;1.33;;
20621;SDS011;10470;42.670;23.354;2024-03-29T02:11:49;2.57;;;1.30;;
20621;SDS011;10470;42.670;23.354;2024-03-29T02:14:16;2.97;;;1.60;;
20621;SDS011;10470;42.670;23.354;2024-03-29T02:16:41;5.00;;;1.40;;
20621;SDS011;10470;42.670;23.354;2024-03-29T02:19:07;4.20;;;1.70;;
20621;SDS011;10470;42.670;23.354;2024-03-29T02:21:32;4.40;;;1.40;;
20621;SDS011;10470;42.670;23.354;2024-03-29T02:24:05;4.23;;;1.70;;
20621;SDS011;10470;42.670;23.354;2024-03-29T02:26:30;3.43;;;1.60;;
20621;SDS011;10470;42.670;23.354;2024-03-29T02:28:57;2.57;;;1.60;;
20621;SDS011;10470;42.670;23.354;2024-03-29T02:31:23;4.07;;;1.60;;
20621;SDS011;10470;42.670;23.354;2024-03-29T02:33:48;3.87;;;1.70;;
20621;SDS011;10470;42.670;23.354;2024-03-29T02:36:14;5.17;;;1.50;;
20621;SDS011;10470;42.670;23.354;2024-03-29T02:38:39;3.73;;;1.50;;
20621;SDS011;10470;42.670;23.354;2024-03-29T02:41:04;2.63;;;1.33;;
20621;SDS011;10470;42.670;23.354;2024-03-29T02:43:30;2.70;;;1.73;;
20621;SDS011;10470;42.670;23.354;2024-03-29T02:45:55;3.97;;;1.10;;
20621;SDS011;10470;42.670;23.354;2024-03-29T02:48:20;3.10;;;1.50;;
20621;SDS011;10470;42.670;23.354;2024-03-29T02:50:45;4.73;;;1.63;;
20621;SDS011;10470;42.670;23.354;2024-03-29T02:53:11;4.80;;;1.50;;
20621;SDS011;10470;42.670;23.354;2024-03-29T02:55:36;6.30;;;1.50;;
20621;SDS011;10470;42.670;23.354;2024-03-29T02:58:01;3.10;;;1.37;;
20621;SDS011;10470;42.670;23.354;2024-03-29T03:00:26;4.23;;;1.67;;
20621;SDS011;10470;42.670;23.354;2024-03-29T03:02:51;3.57;;;1.50;;
20621;SDS011;10470;42.670;23.354;2024-03-29T03:05:17;6.93;;;1.60;;
20621;SDS011;10470;42.670;23.354;2024-03-29T03:07:42;2.60;;;1.60;;
20621;SDS011;10470;42.670;23.354;2024-03-29T03:10:26;5.17;;;2.13;;
20621;SDS011;10470;42.670;23.354;2024-03-29T03:13:10;5.17;;;1.83;;
20621;SDS011;10470;42.670;23.354;2024-03-29T03:15:35;6.03;;;1.53;;
20621;SDS011;10470;42.670;23.354;2024-03-29T03:18:00;4.87;;;1.60;;
20621;SDS011;10470;42.670;23.354;2024-03-29T03:20:25;4.17;;;1.90;;
20621;SDS011;10470;42.670;23.354;2024-03-29T03:22:55;4.77;;;1.40;;
20621;SDS011;10470;42.670;23.354;2024-03-29T03:25:22;3.87;;;1.50;;
20621;SDS011;10470;42.670;23.354;2024-03-29T03:27:47;4.43;;;1.50;;
20621;SDS011;10470;42.670;23.354;2024-03-29T03:30:12;5.53;;;1.53;;
20621;SDS011;10470;42.670;23.354;2024-03-29T03:32:38;2.07;;;1.40;;
20621;SDS011;10470;42.670;23.354;2024-03-29T03:35:03;4.13;;;1.60;;
20621;SDS011;10470;42.670;23.354;2024-03-29T03:37:28;7.03;;;1.83;;
20621;SDS011;10470;42.670;23.354;2024-03-29T03:39:54;3.23;;;1.67;;
20621;SDS011;10470;42.670;23.354;2024-03-29T03:42:19;5.90;;;1.60;;
20621;SDS011;10470;42.670;23.354;2024-03-29T03:44:44;4.93;;;1.63;;
20621;SDS011;10470;42.670;23.354;2024-03-29T03:47:09;4.70;;;1.80;;
20621;SDS011;10470;42.670;23.354;2024-03-29T03:49:34;4.13;;;1.53;;
20621;SDS011;10470;42.670;23.354;2024-03-29T03:52:00;3.27;;;1.60;;
20621;SDS011;10470;42.670;23.354;2024-03-29T03:54:25;3.27;;;1.77;;
20621;SDS011;10470;42.670;23.354;2024-03-29T03:56:50;4.33;;;1.83;;
20621;SDS011;10470;42.670;23.354;2024-03-29T03:59:15;4.17;;;1.90;;
20621;SDS011;10470;42.670;23.354;2024-03-29T04:01:41;2.60;;;1.60;;
20621;SDS011;10470;42.670;23.354;2024-03-29T04:04:06;4.47;;;1.50;;
20621;SDS011;10470;42.670;23.354;2024-03-29T04:06:31;4.07;;;1.80;;
20621;SDS011;10470;42.670;23.354;2024-03-29T04:08:57;4.83;;;1.77;;
20621;SDS011;10470;42.670;23.354;2024-03-29T04:11:22;6.03;;;1.87;;
20621;SDS011;10470;42.670;23.354;2024-03-29T04:13:47;2.53;;;1.67;;
20621;SDS011;10470;42.670;23.354;2024-03-29T04:16:12;5.20;;;1.90;;
20621;SDS011;10470;42.670;23.354;2024-03-29T04:18:37;6.57;;;1.93;;
20621;SDS011;10470;42.670;23.354;2024-03-29T04:21:03;4.23;;;2.07;;
20621;SDS011;10470;42.670;23.354;2024-03-29T04:23:29;6.30;;;2.30;;
20621;SDS011;10470;42.670;23.354;2024-03-29T04:25:57;5.93;;;2.07;;
20621;SDS011;10470;42.670;23.354;2024-03-29T04:28:23;3.37;;;2.00;;
20621;SDS011;10470;42.670;23.354;2024-03-29T04:30:52;3.53;;;1.97;;
20621;SDS011;10470;42.670;23.354;2024-03-29T04:33:18;7.87;;;2.00;;
20621;SDS011;10470;42.670;23.354;2024-03-29T04:35:56;5.97;;;2.50;;
20621;SDS011;10470;42.670;23.354;2024-03-29T04:38:22;9.47;;;2.60;;
20621;SDS011;10470;42.670;23.354;2024-03-29T04:40:48;8.43;;;2.47;;
20621;SDS011;10470;42.670;23.354;2024-03-29T04:43:13;5.40;;;2.20;;
20621;SDS011;10470;42.670;23.354;2024-03-29T04:45:38;3.87;;;1.90;;
20621;SDS011;10470;42.670;23.354;2024-03-29T04:48:04;5.10;;;2.77;;
20621;SDS011;10470;42.670;23.354;2024-03-29T04:50:29;4.90;;;1.90;;
20621;SDS011;10470;42.670;23.354;2024-03-29T04:52:54;9.57;;;3.43;;
20621;SDS011;10470;42.670;23.354;2024-03-29T04:55:19;7.43;;;2.60;;
20621;SDS011;10470;42.670;23.354;2024-03-29T04:57:45;6.47;;;2.80;;
20621;SDS011;10470;42.670;23.354;2024-03-29T05:00:10;6.73;;;3.00;;
20621;SDS011;10470;42.670;23.354;2024-03-29T05:02:35;11.47;;;2.37;;
20621;SDS011;10470;42.670;23.354;2024-03-29T05:05:01;8.67;;;2.43;;
20621;SDS011;10470;42.670;23.354;2024-03-29T05:07:26;5.97;;;2.67;;
20621;SDS011;10470;42.670;23.354;2024-03-29T05:09:51;8.50;;;3.30;;
20621;SDS011;10470;42.670;23.354;2024-03-29T05:12:17;6.77;;;2.73;;
20621;SDS011;10470;42.670;23.354;2024-03-29T05:14:42;9.43;;;2.87;;
20621;SDS011;10470;42.670;23.354;2024-03-29T05:17:07;7.67;;;2.80;;
20621;SDS011;10470;42.670;23.354;2024-03-29T05:19:33;7.23;;;2.07;;
20621;SDS011;10470;42.670;23.354;2024-03-29T05:21:58;9.53;;;2.67;;
20621;SDS011;10470;42.670;23.354;2024-03-29T05:24:23;5.67;;;2.67;;
20621;SDS011;10470;42.670;23.354;2024-03-29T05:26:49;12.80;;;2.87;;
20621;SDS011;10470;42.670;23.354;2024-03-29T05:29:14;7.63;;;2.83;;
20621;SDS011;10470;42.670;23.354;2024-03-29T05:31:40;7.33;;;2.33;;
20621;SDS011;10470;42.670;23.354;2024-03-29T05:34:06;8.73;;;2.60;;
20621;SDS011;10470;42.670;23.354;2024-03-29T05:36:32;45.43;;;16.20;;
20621;SDS011;10470;42.670;23.354;2024-03-29T05:38:57;39.77;;;15.73;;
20621;SDS011;10470;42.670;23.354;2024-03-29T05:41:22;23.90;;;9.97;;
20621;SDS011;10470;42.670;23.354;2024-03-29T05:43:48;21.20;;;9.70;;
20621;SDS011;10470;42.670;23.354;2024-03-29T05:46:15;7.23;;;2.63;;
20621;SDS011;10470;42.670;23.354;2024-03-29T05:48:40;9.23;;;3.53;;
20621;SDS011;10470;42.670;23.354;2024-03-29T05:51:05;6.80;;;2.30;;
20621;SDS011;10470;42.670;23.354;2024-03-29T05:53:30;6.97;;;1.97;;
20621;SDS011;10470;42.670;23.354;2024-03-29T05:55:56;4.73;;;1.80;;
20621;SDS011;10470;42.670;23.354;2024-03-29T05:58:21;4.33;;;2.00;;
20621;SDS011;10470;42.670;23.354;2024-03-29T06:00:46;6.43;;;1.90;;
20621;SDS011;10470;42.670;23.354;2024-03-29T06:03:12;6.10;;;1.93;;
20621;SDS011;10470;42.670;23.354;2024-03-29T06:05:38;6.80;;;1.70;;
20621;SDS011;10470;42.670;23.354;2024-03-29T06:08:04;5.60;;;1.77;;
20621;SDS011;10470;42.670;23.354;2024-03-29T06:10:30;4.80;;;1.80;;
20621;SDS011;10470;42.670;23.354;2024-03-29T06:12:55;3.87;;;1.63;;
20621;SDS011;10470;42.670;23.354;2024-03-29T06:15:20;30.53;;;7.10;;
20621;SDS011;10470;42.670;23.354;2024-03-29T06:18:04;11.43;;;3.20;;
20621;SDS011;10470;42.670;23.354;2024-03-29T06:20:30;11.37;;;3.70;;
20621;SDS011;10470;42.670;23.354;2024-03-29T06:22:55;9.27;;;3.40;;
20621;SDS011;10470;42.670;23.354;2024-03-29T06:25:21;9.80;;;3.90;;
20621;SDS011;10470;42.670;23.354;2024-03-29T06:27:46;7.73;;;2.93;;
20621;SDS011;10470;42.670;23.354;2024-03-29T06:30:15;6.07;;;2.40;;
20621;SDS011;10470;42.670;23.354;2024-03-29T06:32:44;31.10;;;9.30;;
20621;SDS011;10470;42.670;23.354;2024-03-29T06:35:10;9.73;;;4.83;;
20621;SDS011;10470;42.670;23.354;2024-03-29T06:37:35;15.23;;;6.80;;
20621;SDS011;10470;42.670;23.354;2024-03-29T06:40:00;16.70;;;5.57;;
20621;SDS011;10470;42.670;23.354;2024-03-29T06:42:27;10.97;;;6.23;;
20621;SDS011;10470;42.670;23.354;2024-03-29T06:44:52;8.77;;;3.90;;
20621;SDS011;10470;42.670;23.354;2024-03-29T06:47:19;6.77;;;2.23;;
20621;SDS011;10470;42.670;23.354;2024-03-29T06:49:44;5.47;;;1.50;;
20621;SDS011;10470;42.670;23.354;2024-03-29T06:52:10;4.53;;;2.30;;
20621;SDS011;10470;42.670;23.354;2024-03-29T06:54:35;5.87;;;1.53;;
20621;SDS011;10470;42.670;23.354;2024-03-29T06:57:01;2.73;;;1.47;;
20621;SDS011;10470;42.670;23.354;2024-03-29T06:59:26;8.10;;;3.10;;
20621;SDS011;10470;42.670;23.354;2024-03-29T07:01:52;4.23;;;1.93;;
20621;SDS011;10470;42.670;23.354;2024-03-29T07:04:24;8.80;;;2.27;;
20621;SDS011;10470;42.670;23.354;2024-03-29T07:06:52;5.10;;;2.40;;
20621;SDS011;10470;42.670;23.354;2024-03-29T07:09:18;6.27;;;2.00;;
20621;SDS011;10470;42.670;23.354;2024-03-29T07:11:45;5.33;;;1.40;;
20621;SDS011;10470;42.670;23.354;2024-03-29T07:14:10;5.20;;;1.70;;
20621;SDS011;10470;42.670;23.354;2024-03-29T07:16:35;4.60;;;1.90;;
20621;SDS011;10470;42.670;23.354;2024-03-29T07:19:00;4.73;;;1.87;;
20621;SDS011;10470;42.670;23.354;2024-03-29T07:21:28;3.83;;;1.37;;
20621;SDS011;10470;42.670;23.354;2024-03-29T07:23:53;2.40;;;1.10;;
20621;SDS011;10470;42.670;23.354;2024-03-29T07:26:18;2.87;;;1.50;;
20621;SDS011;10470;42.670;23.354;2024-03-29T07:28:43;3.40;;;1.17;;
20621;SDS011;10470;42.670;23.354;2024-03-29T07:31:08;2.93;;;1.20;;
20621;SDS011;10470;42.670;23.354;2024-03-29T07:33:34;7.43;;;2.37;;
20621;SDS011;10470;42.670;23.354;2024-03-29T07:35:59;2.67;;;1.67;;
20621;SDS011;10470;42.670;23.354;2024-03-29T07:38:25;6.33;;;2.07;;
20621;SDS011;10470;42.670;23.354;2024-03-29T07:40:51;3.80;;;1.27;;
20621;SDS011;10470;42.670;23.354;2024-03-29T07:43:17;7.03;;;1.67;;
20621;SDS011;10470;42.670;23.354;2024-03-29T07:45:43;4.17;;;1.80;;
20621;SDS011;10470;42.670;23.354;2024-03-29T07:48:11;5.40;;;1.80;;
20621;SDS011;10470;42.670;23.354;2024-03-29T07:50:37;3.77;;;0.70;;
20621;SDS011;10470;42.670;23.354;2024-03-29T07:53:02;3.47;;;1.70;;
20621;SDS011;10470;42.670;23.354;2024-03-29T07:55:27;2.00;;;1.20;;
20621;SDS011;10470;42.670;23.354;2024-03-29T07:57:52;2.67;;;1.10;;
20621;SDS011;10470;42.670;23.354;2024-03-29T08:00:18;2.70;;;1.20;;
20621;SDS011;10470;42.670;23.354;2024-03-29T08:02:43;2.87;;;1.50;;
20621;SDS011;10470;42.670;23.354;2024-03-29T08:05:09;4.57;;;1.47;;
20621;SDS011;10470;42.670;23.354;2024-03-29T08:07:34;4.17;;;1.37;;
20621;SDS011;10470;42.670;23.354;2024-03-29T08:09:59;7.90;;;1.90;;
20621;SDS011;10470;42.670;23.354;2024-03-29T08:12:25;5.40;;;2.00;;
20621;SDS011;10470;42.670;23.354;2024-03-29T08:14:50;4.67;;;1.80;;
20621;SDS011;10470;42.670;23.354;2024-03-29T08:17:15;2.80;;;1.00;;
20621;SDS011;10470;42.670;23.354;2024-03-29T08:19:41;3.97;;;0.90;;
20621;SDS011;10470;42.670;23.354;2024-03-29T08:22:09;4.70;;;1.30;;
20621;SDS011;10470;42.670;23.354;2024-03-29T08:24:37;4.10;;;1.80;;
20621;SDS011;10470;42.670;23.354;2024-03-29T08:27:02;3.47;;;1.30;;
20621;SDS011;10470;42.670;23.354;2024-03-29T08:29:28;3.17;;;0.90;;
20621;SDS011;10470;42.670;23.354;2024-03-29T08:31:54;5.60;;;1.30;;
20621;SDS011;10470;42.670;23.354;2024-03-29T08:34:19;3.17;;;1.30;;
20621;SDS011;10470;42.670;23.354;2024-03-29T08:36:44;2.33;;;1.10;;
20621;SDS011;10470;42.670;23.354;2024-03-29T08:39:09;2.07;;;1.10;;
20621;SDS011;10470;42.670;23.354;2024-03-29T08:41:35;3.47;;;0.90;;
20621;SDS011;10470;42.670;23.354;2024-03-29T08:44:00;3.60;;;1.20;;
20621;SDS011;10470;42.670;23.354;2024-03-29T08:46:26;1.50;;;0.80;;
20621;SDS011;10470;42.670;23.354;2024-03-29T08:48:53;7.43;;;1.40;;
20621;SDS011;10470;42.670;23.354;2024-03-29T08:51:18;4.50;;;0.93;;
20621;SDS011;10470;42.670;23.354;2024-03-29T08:53:44;2.77;;;1.10;;
20621;SDS011;10470;42.670;23.354;2024-03-29T08:56:09;4.97;;;1.10;;
20621;SDS011;10470;42.670;23.354;2024-03-29T08:58:34;3.47;;;1.00;;
20621;SDS011;10470;42.670;23.354;2024-03-29T09:00:59;4.87;;;1.33;;
20621;SDS011;10470;42.670;23.354;2024-03-29T09:03:29;3.03;;;1.00;;
20621;SDS011;10470;42.670;23.354;2024-03-29T09:05:54;4.37;;;0.90;;
20621;SDS011;10470;42.670;23.354;2024-03-29T09:08:19;1.93;;;1.00;;
20621;SDS011;10470;42.670;23.354;2024-03-29T09:10:44;2.83;;;0.80;;
20621;SDS011;10470;42.670;23.354;2024-03-29T09:13:10;3.87;;;0.80;;
20621;SDS011;10470;42.670;23.354;2024-03-29T09:15:36;2.37;;;0.87;;
20621;SDS011;10470;42.670;23.354;2024-03-29T09:18:01;2.33;;;0.70;;
20621;SDS011;10470;42.670;23.354;2024-03-29T09:20:34;3.20;;;1.30;;
20621;SDS011;10470;42.670;23.354;2024-03-29T09:22:59;4.60;;;1.10;;
20621;SDS011;10470;42.670;23.354;2024-03-29T09:25:25;1.37;;;0.70;;
20621;SDS011;10470;42.670;23.354;2024-03-29T09:27:50;2.57;;;1.30;;
20621;SDS011;10470;42.670;23.354;2024-03-29T09:30:15;2.40;;;0.93;;
20621;SDS011;10470;42.670;23.354;2024-03-29T09:32:41;2.43;;;1.20;;
20621;SDS011;10470;42.670;23.354;2024-03-29T09:35:06;3.70;;;1.00;;
20621;SDS011;10470;42.670;23.354;2024-03-29T09:37:31;2.43;;;1.00;;
20621;SDS011;10470;42.670;23.354;2024-03-29T09:40:01;1.87;;;0.90;;
20621;SDS011;10470;42.670;23.354;2024-03-29T09:42:26;2.53;;;0.90;;
20621;SDS011;10470;42.670;23.354;2024-03-29T09:44:55;6.33;;;1.13;;
20621;SDS011;10470;42.670;23.354;2024-03-29T09:47:22;2.70;;;1.00;;
20621;SDS011;10470;42.670;23.354;2024-03-29T09:49:47;2.10;;;0.80;;
20621;SDS011;10470;42.670;23.354;2024-03-29T09:52:15;1.83;;;0.87;;
20621;SDS011;10470;42.670;23.354;2024-03-29T09:54:41;3.23;;;1.00;;
20621;SDS011;10470;42.670;23.354;2024-03-29T09:57:07;5.80;;;1.40;;
20621;SDS011;10470;42.670;23.354;2024-03-29T09:59:33;6.23;;;2.27;;
20621;SDS011;10470;42.670;23.354;2024-03-29T10:01:59;5.27;;;1.50;;
20621;SDS011;10470;42.670;23.354;2024-03-29T10:04:25;3.87;;;1.13;;
20621;SDS011;10470;42.670;23.354;2024-03-29T10:06:52;3.07;;;1.00;;
20621;SDS011;10470;42.670;23.354;2024-03-29T10:09:18;5.17;;;1.10;;
20621;SDS011;10470;42.670;23.354;2024-03-29T10:11:44;5.93;;;1.10;;
20621;SDS011;10470;42.670;23.354;2024-03-29T10:14:10;4.47;;;1.20;;
20621;SDS011;10470;42.670;23.354;2024-03-29T10:16:35;2.70;;;1.23;;
20621;SDS011;10470;42.670;23.354;2024-03-29T10:19:00;3.13;;;1.33;;
20621;SDS011;10470;42.670;23.354;2024-03-29T10:21:26;4.27;;;1.20;;
20621;SDS011;10470;42.670;23.354;2024-03-29T10:23:54;3.67;;;1.00;;
20621;SDS011;10470;42.670;23.354;2024-03-29T10:26:19;3.37;;;1.30;;
20621;SDS011;10470;42.670;23.354;2024-03-29T10:28:45;4.57;;;1.73;;
20621;SDS011;10470;42.670;23.354;2024-03-29T10:31:11;4.93;;;1.20;;
20621;SDS011;10470;42.670;23.354;2024-03-29T10:33:36;4.37;;;1.30;;
20621;SDS011;10470;42.670;23.354;2024-03-29T10:36:02;3.53;;;1.17;;
20621;SDS011;10470;42.670;23.354;2024-03-29T10:38:31;7.77;;;2.80;;
20621;SDS011;10470;42.670;23.354;2024-03-29T10:40:56;2.90;;;1.00;;
20621;SDS011;10470;42.670;23.354;2024-03-29T10:43:22;1.80;;;1.10;;
20621;SDS011;10470;42.670;23.354;2024-03-29T10:45:49;4.03;;;1.10;;
20621;SDS011;10470;42.670;23.354;2024-03-29T10:48:20;5.23;;;1.10;;
20621;SDS011;10470;42.670;23.354;2024-03-29T10:50:46;2.40;;;1.07;;
20621;SDS011;10470;42.670;23.354;2024-03-29T10:53:13;6.53;;;1.10;;
20621;SDS011;10470;42.670;23.354;2024-03-29T10:55:40;2.57;;;0.83;;
20621;SDS011;10470;42.670;23.354;2024-03-29T10:58:07;4.93;;;1.17;;
20621;SDS011;10470;42.670;23.354;2024-03-29T11:00:39;3.57;;;1.10;;
20621;SDS011;10470;42.670;23.354;2024-03-29T11:03:16;4.57;;;1.27;;
20621;SDS011;10470;42.670;23.354;2024-03-29T11:05:49;2.67;;;1.00;;
20621;SDS011;10470;42.670;23.354;2024-03-29T11:08:34;3.97;;;1.23;;
20621;SDS011;10470;42.670;23.354;2024-03-29T11:11:03;4.03;;;1.13;;
20621;SDS011;10470;42.670;23.354;2024-03-29T11:16:10;3.97;;;1.17;;
20621;SDS011;10470;42.670;23.354;2024-03-29T11:18:36;4.13;;;1.13;;
20621;SDS011;10470;42.670;23.354;2024-03-29T11:21:02;4.27;;;1.30;;
20621;SDS011;10470;42.670;23.354;2024-03-29T11:23:31;2.90;;;1.63;;
20621;SDS011;10470;42.670;23.354;2024-03-29T11:25:57;5.40;;;1.47;;
20621;SDS011;10470;42.670;23.354;2024-03-29T11:28:26;4.37;;;1.80;;
20621;SDS011;10470;42.670;23.354;2024-03-29T11:30:57;5.07;;;1.27;;
20621;SDS011;10470;42.670;23.354;2024-03-29T11:33:27;6.33;;;1.43;;
20621;SDS011;10470;42.670;23.354;2024-03-29T11:35:53;3.07;;;1.07;;
20621;SDS011;10470;42.670;23.354;2024-03-29T11:38:18;2.00;;;1.13;;
20621;SDS011;10470;42.670;23.354;2024-03-29T11:40:53;5.27;;;1.00;;
20621;SDS011;10470;42.670;23.354;2024-03-29T11:43:18;4.57;;;1.50;;
20621;SDS011;10470;42.670;23.354;2024-03-29T11:45:43;4.57;;;1.20;;
20621;SDS011;10470;42.670;23.354;2024-03-29T11:48:09;4.17;;;1.40;;
20621;SDS011;10470;42.670;23.354;2024-03-29T11:50:35;4.33;;;1.10;;
20621;SDS011;10470;42.670;23.354;2024-03-29T11:53:02;3.17;;;1.20;;
20621;SDS011;10470;42.670;23.354;2024-03-29T11:55:27;3.57;;;1.30;;
20621;SDS011;10470;42.670;23.354;2024-03-29T11:57:53;7.17;;;1.77;;
20621;SDS011;10470;42.670;23.354;2024-03-29T12:00:18;4.97;;;1.63;;
20621;SDS011;10470;42.670;23.354;2024-03-29T12:02:44;4.93;;;1.40;;
20621;SDS011;10470;42.670;23.354;2024-03-29T12:05:09;5.20;;;1.37;;
20621;SDS011;10470;42.670;23.354;2024-03-29T12:07:35;5.50;;;1.20;;
20621;SDS011;10470;42.670;23.354;2024-03-29T12:10:00;3.70;;;1.13;;
20621;SDS011;10470;42.670;23.354;2024-03-29T12:12:25;3.77;;;0.97;;
20621;SDS011;10470;42.670;23.354;2024-03-29T12:14:51;5.23;;;1.17;;
20621;SDS011;10470;42.670;23.354;2024-03-29T12:17:16;3.87;;;1.10;;
20621;SDS011;10470;42.670;23.354;2024-03-29T12:19:41;3.43;;;1.00;;
20621;SDS011;10470;42.670;23.354;2024-03-29T12:22:08;4.20;;;1.17;;
20621;SDS011;10470;42.670;23.354;2024-03-29T12:24:34;4.93;;;1.10;;
20621;SDS011;10470;42.670;23.354;2024-03-29T12:26:59;4.57;;;1.10;;
20621;SDS011;10470;42.670;23.354;2024-03-29T12:29:25;3.33;;;1.33;;
20621;SDS011;10470;42.670;23.354;2024-03-29T12:32:00;4.03;;;1.30;;
20621;SDS011;10470;42.670;23.354;2024-03-29T12:34:26;3.57;;;1.20;;
20621;SDS011;10470;42.670;23.354;2024-03-29T12:36:51;5.80;;;1.10;;
20621;SDS011;10470;42.670;23.354;2024-03-29T12:39:17;4.87;;;1.17;;
20621;SDS011;10470;42.670;23.354;2024-03-29T12:41:42;3.67;;;1.00;;
20621;SDS011;10470;42.670;23.354;2024-03-29T12:44:09;4.97;;;1.47;;
20621;SDS011;10470;42.670;23.354;2024-03-29T12:46:35;4.40;;;1.33;;
20621;SDS011;10470;42.670;23.354;2024-03-29T12:49:01;4.23;;;0.83;;
20621;SDS011;10470;42.670;23.354;2024-03-29T12:51:27;3.92;;;1.00;;
20621;SDS011;10470;42.670;23.354;2024-03-29T12:53:52;7.70;;;1.67;;
20621;SDS011;10470;42.670;23.354;2024-03-29T12:56:18;3.83;;;0.97;;
20621;SDS011;10470;42.670;23.354;2024-03-29T12:58:43;5.75;;;1.20;;
20621;SDS011;10470;42.670;23.354;2024-03-29T13:01:08;5.67;;;0.93;;
20621;SDS011;10470;42.670;23.354;2024-03-29T13:03:35;3.20;;;1.10;;
20621;SDS011;10470;42.670;23.354;2024-03-29T13:06:01;3.65;;;1.30;;
20621;SDS011;10470;42.670;23.354;2024-03-29T13:08:27;3.45;;;1.33;;
20621;SDS011;10470;42.670;23.354;2024-03-29T13:10:52;3.55;;;1.10;;
20621;SDS011;10470;42.670;23.354;2024-03-29T13:13:17;3.92;;;1.20;;
20621;SDS011;10470;42.670;23.354;2024-03-29T13:15:43;3.65;;;1.23;;
20621;SDS011;10470;42.670;23.354;2024-03-29T13:18:12;3.97;;;1.10;;
20621;SDS011;10470;42.670;23.354;2024-03-29T13:20:38;5.55;;;1.30;;
20621;SDS011;10470;42.670;23.354;2024-03-29T13:23:07;2.63;;;1.20;;
20621;SDS011;10470;42.670;23.354;2024-03-29T13:25:33;3.90;;;1.05;;
20621;SDS011;10470;42.670;23.354;2024-03-29T13:27:58;5.38;;;1.38;;
20621;SDS011;10470;42.670;23.354;2024-03-29T13:30:24;4.78;;;1.00;;
20621;SDS011;10470;42.670;23.354;2024-03-29T13:32:50;2.37;;;1.00;;
20621;SDS011;10470;42.670;23.354;2024-03-29T13:35:16;5.05;;;1.20;;
20621;SDS011;10470;42.670;23.354;2024-03-29T13:37:42;3.58;;;1.08;;
20621;SDS011;10470;42.670;23.354;2024-03-29T13:40:11;4.90;;;1.50;;
20621;SDS011;10470;42.670;23.354;2024-03-29T13:42:37;4.03;;;0.90;;
20621;SDS011;10470;42.670;23.354;2024-03-29T13:45:03;3.47;;;1.17;;
20621;SDS011;10470;42.670;23.354;2024-03-29T13:47:28;5.75;;;1.08;;
20621;SDS011;10470;42.670;23.354;2024-03-29T13:49:53;2.00;;;1.05;;
20621;SDS011;10470;42.670;23.354;2024-03-29T13:52:20;4.18;;;1.05;;
20621;SDS011;10470;42.670;23.354;2024-03-29T13:54:46;2.63;;;1.07;;
20621;SDS011;10470;42.670;23.354;2024-03-29T13:57:14;3.53;;;1.15;;
20621;SDS011;10470;42.670;23.354;2024-03-29T13:59:40;8.73;;;1.30;;
20621;SDS011;10470;42.670;23.354;2024-03-29T14:02:08;4.07;;;1.30;;
20621;SDS011;10470;42.670;23.354;2024-03-29T14:04:33;3.58;;;1.30;;
20621;SDS011;10470;42.670;23.354;2024-03-29T14:06:59;3.63;;;1.15;;
20621;SDS011;10470;42.670;23.354;2024-03-29T14:09:24;4.53;;;1.13;;
20621;SDS011;10470;42.670;23.354;2024-03-29T14:11:49;7.38;;;1.50;;
20621;SDS011;10470;42.670;23.354;2024-03-29T14:14:15;17.38;;;1.67;;
20621;SDS011;10470;42.670;23.354;2024-03-29T14:16:41;11.60;;;1.40;;
20621;SDS011;10470;42.670;23.354;2024-03-29T14:19:06;4.15;;;0.90;;
20621;SDS011;10470;42.670;23.354;2024-03-29T14:21:31;5.93;;;1.25;;
20621;SDS011;10470;42.670;23.354;2024-03-29T14:23:57;2.45;;;0.90;;
20621;SDS011;10470;42.670;23.354;2024-03-29T14:26:22;4.20;;;1.00;;
20621;SDS011;10470;42.670;23.354;2024-03-29T14:28:48;9.27;;;1.57;;